sensor_id;sensor_type;location;lat;lon;timestamp;P1;durP1;ratioP1;P2;durP2;ratioP2
67514;SDS011;60646;55.802;37.032;2023-07-20T00:01:27;1.30;;;0.90;;
67514;SDS011;60646;55.802;37.032;2023-07-20T00:03:53;2.03;;;0.90;;
67514;SDS011;60646;55.802;37.032;2023-07-20T00:06:26;1.00;;;0.80;;
67514;SDS011;60646;55.802;37.032;2023-07-20T00:08:54;1.05;;;0.63;;
67514;SDS011;60646;55.802;37.032;2023-07-20T00:11:24;3.28;;;0.65;;
67514;SDS011;60646;55.802;37.032;2023-07-20T00:14:19;1.98;;;0.60;;
67514;SDS011;60646;55.802;37.032;2023-07-20T00:16:46;2.17;;;0.60;;
67514;SDS011;60646;55.802;37.032;2023-07-20T00:19:14;1.20;;;0.70;;
67514;SDS011;60646;55.802;37.032;2023-07-20T00:21:42;1.02;;;0.85;;
67514;SDS011;60646;55.802;37.032;2023-07-20T00:24:08;2.05;;;0.80;;
67514;SDS011;60646;55.802;37.032;2023-07-20T00:26:37;1.05;;;0.80;;
67514;SDS011;60646;55.802;37.032;2023-07-20T00:29:03;2.05;;;0.95;;
67514;SDS011;60646;55.802;37.032;2023-07-20T00:31:29;2.75;;;1.38;;
67514;SDS011;60646;55.802;37.032;2023-07-20T00:33:56;2.90;;;1.30;;
67514;SDS011;60646;55.802;37.032;2023-07-20T00:36:23;2.03;;;1.00;;
67514;SDS011;60646;55.802;37.032;2023-07-20T00:38:53;1.42;;;0.80;;
67514;SDS011;60646;55.802;37.032;2023-07-20T00:41:20;2.58;;;0.75;;
67514;SDS011;60646;55.802;37.032;2023-07-20T00:43:46;1.65;;;0.90;;
67514;SDS011;60646;55.802;37.032;2023-07-20T00:46:12;2.50;;;0.80;;
67514;SDS011;60646;55.802;37.032;2023-07-20T00:48:39;3.90;;;0.65;;
67514;SDS011;60646;55.802;37.032;2023-07-20T00:51:08;1.98;;;0.77;;
67514;SDS011;60646;55.802;37.032;2023-07-20T00:53:36;1.40;;;0.65;;
67514;SDS011;60646;55.802;37.032;2023-07-20T00:56:02;2.05;;;0.60;;
67514;SDS011;60646;55.802;37.032;2023-07-20T00:58:29;1.35;;;0.70;;
67514;SDS011;60646;55.802;37.032;2023-07-20T01:00:54;2.00;;;0.68;;
67514;SDS011;60646;55.802;37.032;2023-07-20T01:03:20;0.60;;;0.50;;
67514;SDS011;60646;55.802;37.032;2023-07-20T01:11:15;2.55;;;0.50;;
67514;SDS011;60646;55.802;37.032;2023-07-20T01:13:44;2.58;;;0.52;;
67514;SDS011;60646;55.802;37.032;2023-07-20T01:16:10;1.73;;;0.60;;
67514;SDS011;60646;55.802;37.032;2023-07-20T01:18:36;1.27;;;0.68;;
67514;SDS011;60646;55.802;37.032;2023-07-20T01:21:06;0.60;;;0.50;;
67514;SDS011;60646;55.802;37.032;2023-07-20T01:23:41;2.33;;;0.47;;
67514;SDS011;60646;55.802;37.032;2023-07-20T01:26:27;0.57;;;0.47;;
67514;SDS011;60646;55.802;37.032;2023-07-20T01:29:22;1.88;;;0.70;;
67514;SDS011;60646;55.802;37.032;2023-07-20T01:32:07;1.52;;;0.50;;
67514;SDS011;60646;55.802;37.032;2023-07-20T01:34:35;0.75;;;0.60;;
67514;SDS011;60646;55.802;37.032;2023-07-20T01:37:03;3.70;;;0.60;;
67514;SDS011;60646;55.802;37.032;2023-07-20T01:39:30;0.93;;;0.60;;
67514;SDS011;60646;55.802;37.032;2023-07-20T01:41:57;0.50;;;0.50;;
67514;SDS011;60646;55.802;37.032;2023-07-20T01:44:23;3.38;;;0.50;;
67514;SDS011;60646;55.802;37.032;2023-07-20T01:46:49;1.27;;;0.55;;
67514;SDS011;60646;55.802;37.032;2023-07-20T01:49:15;0.50;;;0.50;;
67514;SDS011;60646;55.802;37.032;2023-07-20T01:51:43;0.70;;;0.70;;
67514;SDS011;60646;55.802;37.032;2023-07-20T01:54:09;0.95;;;0.50;;
67514;SDS011;60646;55.802;37.032;2023-07-20T01:56:35;0.70;;;0.50;;
67514;SDS011;60646;55.802;37.032;2023-07-20T01:59:01;0.82;;;0.60;;
67514;SDS011;60646;55.802;37.032;2023-07-20T02:01:27;1.52;;;0.60;;
67514;SDS011;60646;55.802;37.032;2023-07-20T02:03:54;2.53;;;0.70;;
67514;SDS011;60646;55.802;37.032;2023-07-20T02:06:19;1.23;;;0.65;;
67514;SDS011;60646;55.802;37.032;2023-07-20T02:08:48;0.85;;;0.70;;
67514;SDS011;60646;55.802;37.032;2023-07-20T02:11:14;0.93;;;0.60;;
67514;SDS011;60646;55.802;37.032;2023-07-20T02:13:39;1.67;;;0.60;;
67514;SDS011;60646;55.802;37.032;2023-07-20T02:16:05;1.50;;;1.13;;
67514;SDS011;60646;55.802;37.032;2023-07-20T02:18:32;1.58;;;0.60;;
67514;SDS011;60646;55.802;37.032;2023-07-20T02:20:58;2.25;;;0.80;;
67514;SDS011;60646;55.802;37.032;2023-07-20T02:23:24;0.60;;;0.60;;
67514;SDS011;60646;55.802;37.032;2023-07-20T02:25:50;2.22;;;0.60;;
67514;SDS011;60646;55.802;37.032;2023-07-20T02:28:16;0.90;;;0.50;;
67514;SDS011;60646;55.802;37.032;2023-07-20T02:30:42;0.50;;;0.50;;
67514;SDS011;60646;55.802;37.032;2023-07-20T02:33:09;1.08;;;0.68;;
67514;SDS011;60646;55.802;37.032;2023-07-20T02:35:38;0.60;;;0.47;;
67514;SDS011;60646;55.802;37.032;2023-07-20T02:38:05;1.65;;;0.60;;
67514;SDS011;60646;55.802;37.032;2023-07-20T02:40:33;1.88;;;0.77;;
67514;SDS011;60646;55.802;37.032;2023-07-20T02:42:59;0.98;;;0.60;;
67514;SDS011;60646;55.802;37.032;2023-07-20T02:45:25;1.00;;;0.70;;
67514;SDS011;60646;55.802;37.032;2023-07-20T02:59:24;0.95;;;0.43;;
67514;SDS011;60646;55.802;37.032;2023-07-20T03:07:26;1.10;;;0.75;;
67514;SDS011;60646;55.802;37.032;2023-07-20T03:09:55;1.65;;;0.47;;
67514;SDS011;60646;55.802;37.032;2023-07-20T03:15:18;0.65;;;0.40;;
67514;SDS011;60646;55.802;37.032;2023-07-20T03:20:34;0.47;;;0.47;;
67514;SDS011;60646;55.802;37.032;2023-07-20T03:23:03;1.10;;;0.70;;
67514;SDS011;60646;55.802;37.032;2023-07-20T03:28:39;2.78;;;0.60;;
67514;SDS011;60646;55.802;37.032;2023-07-20T03:34:05;1.25;;;0.50;;
67514;SDS011;60646;55.802;37.032;2023-07-20T03:39:37;1.08;;;0.50;;
67514;SDS011;60646;55.802;37.032;2023-07-20T03:42:38;0.85;;;0.50;;
67514;SDS011;60646;55.802;37.032;2023-07-20T03:45:08;1.67;;;0.70;;
67514;SDS011;60646;55.802;37.032;2023-07-20T03:59:28;1.90;;;0.88;;
67514;SDS011;60646;55.802;37.032;2023-07-20T04:13:46;0.50;;;0.50;;
67514;SDS011;60646;55.802;37.032;2023-07-20T04:16:12;1.55;;;0.63;;
67514;SDS011;60646;55.802;37.032;2023-07-20T04:21:39;0.70;;;0.50;;
67514;SDS011;60646;55.802;37.032;2023-07-20T04:24:10;2.20;;;0.70;;
67514;SDS011;60646;55.802;37.032;2023-07-20T04:26:40;1.45;;;0.60;;
67514;SDS011;60646;55.802;37.032;2023-07-20T04:29:06;1.65;;;0.60;;
67514;SDS011;60646;55.802;37.032;2023-07-20T04:31:43;0.98;;;0.50;;
67514;SDS011;60646;55.802;37.032;2023-07-20T04:34:10;0.88;;;0.50;;
67514;SDS011;60646;55.802;37.032;2023-07-20T04:36:36;1.75;;;0.55;;
67514;SDS011;60646;55.802;37.032;2023-07-20T04:39:04;0.80;;;0.52;;
67514;SDS011;60646;55.802;37.032;2023-07-20T04:41:38;0.80;;;0.50;;
67514;SDS011;60646;55.802;37.032;2023-07-20T04:44:08;0.82;;;0.60;;
67514;SDS011;60646;55.802;37.032;2023-07-20T04:46:33;1.75;;;0.60;;
67514;SDS011;60646;55.802;37.032;2023-07-20T04:49:02;0.85;;;0.52;;
67514;SDS011;60646;55.802;37.032;2023-07-20T04:51:33;1.05;;;0.50;;
67514;SDS011;60646;55.802;37.032;2023-07-20T04:53:59;0.95;;;0.60;;
67514;SDS011;60646;55.802;37.032;2023-07-20T04:56:33;0.68;;;0.57;;
67514;SDS011;60646;55.802;37.032;2023-07-20T05:01:51;0.68;;;0.52;;
67514;SDS011;60646;55.802;37.032;2023-07-20T05:04:17;3.13;;;0.60;;
67514;SDS011;60646;55.802;37.032;2023-07-20T05:06:43;1.02;;;0.60;;
67514;SDS011;60646;55.802;37.032;2023-07-20T05:11:54;0.90;;;0.60;;
67514;SDS011;60646;55.802;37.032;2023-07-20T05:14:22;0.50;;;0.50;;
67514;SDS011;60646;55.802;37.032;2023-07-20T05:16:50;0.77;;;0.65;;
67514;SDS011;60646;55.802;37.032;2023-07-20T05:19:17;1.38;;;0.43;;
67514;SDS011;60646;55.802;37.032;2023-07-20T05:21:54;0.88;;;0.55;;
67514;SDS011;60646;55.802;37.032;2023-07-20T05:24:26;0.88;;;0.50;;
67514;SDS011;60646;55.802;37.032;2023-07-20T05:29:26;0.90;;;0.60;;
67514;SDS011;60646;55.802;37.032;2023-07-20T05:31:52;1.52;;;0.68;;
67514;SDS011;60646;55.802;37.032;2023-07-20T05:34:20;1.42;;;0.52;;
67514;SDS011;60646;55.802;37.032;2023-07-20T05:36:49;0.85;;;0.50;;
67514;SDS011;60646;55.802;37.032;2023-07-20T05:39:18;0.90;;;0.47;;
67514;SDS011;60646;55.802;37.032;2023-07-20T05:41:44;1.13;;;0.45;;
67514;SDS011;60646;55.802;37.032;2023-07-20T05:44:10;3.90;;;0.80;;
67514;SDS011;60646;55.802;37.032;2023-07-20T05:46:36;0.80;;;0.63;;
67514;SDS011;60646;55.802;37.032;2023-07-20T05:49:02;0.47;;;0.47;;
67514;SDS011;60646;55.802;37.032;2023-07-20T05:51:27;1.17;;;0.60;;
67514;SDS011;60646;55.802;37.032;2023-07-20T05:53:53;0.63;;;0.50;;
67514;SDS011;60646;55.802;37.032;2023-07-20T05:56:19;1.85;;;0.60;;
67514;SDS011;60646;55.802;37.032;2023-07-20T05:58:44;1.27;;;0.50;;
67514;SDS011;60646;55.802;37.032;2023-07-20T06:01:10;1.23;;;0.60;;
67514;SDS011;60646;55.802;37.032;2023-07-20T06:03:36;1.15;;;0.60;;
67514;SDS011;60646;55.802;37.032;2023-07-20T06:06:03;1.90;;;0.55;;
67514;SDS011;60646;55.802;37.032;2023-07-20T06:08:32;0.82;;;0.57;;
67514;SDS011;60646;55.802;37.032;2023-07-20T06:10:58;0.82;;;0.50;;
67514;SDS011;60646;55.802;37.032;2023-07-20T06:13:25;1.73;;;0.60;;
67514;SDS011;60646;55.802;37.032;2023-07-20T06:15:52;1.80;;;0.50;;
67514;SDS011;60646;55.802;37.032;2023-07-20T06:18:19;0.65;;;0.40;;
67514;SDS011;60646;55.802;37.032;2023-07-20T06:20:50;0.52;;;0.43;;
67514;SDS011;60646;55.802;37.032;2023-07-20T06:23:18;0.57;;;0.50;;
67514;SDS011;60646;55.802;37.032;2023-07-20T06:25:47;3.83;;;0.55;;
67514;SDS011;60646;55.802;37.032;2023-07-20T06:28:15;1.92;;;0.63;;
67514;SDS011;60646;55.802;37.032;2023-07-20T06:30:40;0.68;;;0.47;;
67514;SDS011;60646;55.802;37.032;2023-07-20T06:33:06;0.57;;;0.50;;
67514;SDS011;60646;55.802;37.032;2023-07-20T06:35:33;1.00;;;0.40;;
67514;SDS011;60646;55.802;37.032;2023-07-20T06:38:01;0.95;;;0.60;;
67514;SDS011;60646;55.802;37.032;2023-07-20T06:40:30;0.80;;;0.45;;
67514;SDS011;60646;55.802;37.032;2023-07-20T06:42:56;0.95;;;0.63;;
67514;SDS011;60646;55.802;37.032;2023-07-20T06:45:23;0.95;;;0.60;;
67514;SDS011;60646;55.802;37.032;2023-07-20T06:47:48;0.93;;;0.60;;
67514;SDS011;60646;55.802;37.032;2023-07-20T06:50:14;0.80;;;0.65;;
67514;SDS011;60646;55.802;37.032;2023-07-20T06:52:40;1.35;;;0.60;;
67514;SDS011;60646;55.802;37.032;2023-07-20T06:55:06;3.45;;;0.52;;
67514;SDS011;60646;55.802;37.032;2023-07-20T06:57:33;0.50;;;0.50;;
67514;SDS011;60646;55.802;37.032;2023-07-20T06:59:59;1.27;;;0.55;;
67514;SDS011;60646;55.802;37.032;2023-07-20T07:02:25;0.70;;;0.40;;
67514;SDS011;60646;55.802;37.032;2023-07-20T07:04:51;0.93;;;0.40;;
67514;SDS011;60646;55.802;37.032;2023-07-20T07:07:17;0.80;;;0.43;;
67514;SDS011;60646;55.802;37.032;2023-07-20T07:09:43;0.98;;;0.50;;
67514;SDS011;60646;55.802;37.032;2023-07-20T07:12:09;1.10;;;0.70;;
67514;SDS011;60646;55.802;37.032;2023-07-20T07:14:36;0.88;;;0.50;;
67514;SDS011;60646;55.802;37.032;2023-07-20T07:17:02;0.68;;;0.50;;
67514;SDS011;60646;55.802;37.032;2023-07-20T07:19:28;0.60;;;0.60;;
67514;SDS011;60646;55.802;37.032;2023-07-20T07:21:55;1.77;;;0.73;;
67514;SDS011;60646;55.802;37.032;2023-07-20T07:24:21;4.63;;;2.00;;
67514;SDS011;60646;55.802;37.032;2023-07-20T07:26:48;2.60;;;0.80;;
67514;SDS011;60646;55.802;37.032;2023-07-20T07:29:13;2.83;;;0.80;;
67514;SDS011;60646;55.802;37.032;2023-07-20T07:31:39;0.60;;;0.50;;
67514;SDS011;60646;55.802;37.032;2023-07-20T07:34:05;1.60;;;0.90;;
67514;SDS011;60646;55.802;37.032;2023-07-20T07:36:32;1.27;;;0.55;;
67514;SDS011;60646;55.802;37.032;2023-07-20T07:38:58;0.90;;;0.55;;
67514;SDS011;60646;55.802;37.032;2023-07-20T07:41:24;1.45;;;0.70;;
67514;SDS011;60646;55.802;37.032;2023-07-20T07:43:50;4.05;;;0.70;;
67514;SDS011;60646;55.802;37.032;2023-07-20T07:46:16;0.73;;;0.50;;
67514;SDS011;60646;55.802;37.032;2023-07-20T07:48:43;0.63;;;0.50;;
67514;SDS011;60646;55.802;37.032;2023-07-20T07:51:08;1.20;;;0.82;;
67514;SDS011;60646;55.802;37.032;2023-07-20T07:53:34;1.65;;;0.68;;
67514;SDS011;60646;55.802;37.032;2023-07-20T07:56:02;0.80;;;0.60;;
67514;SDS011;60646;55.802;37.032;2023-07-20T07:58:29;1.98;;;0.60;;
67514;SDS011;60646;55.802;37.032;2023-07-20T08:00:55;1.00;;;0.60;;
67514;SDS011;60646;55.802;37.032;2023-07-20T08:03:21;1.92;;;0.70;;
67514;SDS011;60646;55.802;37.032;2023-07-20T08:05:49;1.55;;;0.80;;
67514;SDS011;60646;55.802;37.032;2023-07-20T08:08:15;1.00;;;0.68;;
67514;SDS011;60646;55.802;37.032;2023-07-20T08:10:41;1.50;;;0.65;;
67514;SDS011;60646;55.802;37.032;2023-07-20T08:13:07;1.02;;;0.60;;
67514;SDS011;60646;55.802;37.032;2023-07-20T08:15:34;1.63;;;0.70;;
67514;SDS011;60646;55.802;37.032;2023-07-20T08:18:03;2.38;;;1.23;;
67514;SDS011;60646;55.802;37.032;2023-07-20T08:20:30;1.00;;;0.70;;
67514;SDS011;60646;55.802;37.032;2023-07-20T08:22:58;1.42;;;0.50;;
67514;SDS011;60646;55.802;37.032;2023-07-20T08:25:25;1.17;;;0.60;;
67514;SDS011;60646;55.802;37.032;2023-07-20T08:27:51;1.67;;;0.70;;
67514;SDS011;60646;55.802;37.032;2023-07-20T08:30:17;1.23;;;0.50;;
67514;SDS011;60646;55.802;37.032;2023-07-20T08:32:47;1.38;;;0.77;;
67514;SDS011;60646;55.802;37.032;2023-07-20T08:35:13;0.60;;;0.60;;
67514;SDS011;60646;55.802;37.032;2023-07-20T08:37:40;1.88;;;0.90;;
67514;SDS011;60646;55.802;37.032;2023-07-20T08:40:06;1.25;;;0.60;;
67514;SDS011;60646;55.802;37.032;2023-07-20T08:42:34;1.40;;;0.80;;
67514;SDS011;60646;55.802;37.032;2023-07-20T08:45:01;1.58;;;0.70;;
67514;SDS011;60646;55.802;37.032;2023-07-20T08:47:31;2.05;;;1.17;;
67514;SDS011;60646;55.802;37.032;2023-07-20T08:49:57;2.20;;;0.77;;
67514;SDS011;60646;55.802;37.032;2023-07-20T08:52:25;2.03;;;0.80;;
67514;SDS011;60646;55.802;37.032;2023-07-20T08:54:55;0.95;;;0.70;;
67514;SDS011;60646;55.802;37.032;2023-07-20T08:57:21;2.65;;;0.75;;
67514;SDS011;60646;55.802;37.032;2023-07-20T08:59:48;1.23;;;0.60;;
67514;SDS011;60646;55.802;37.032;2023-07-20T09:02:16;1.83;;;0.80;;
67514;SDS011;60646;55.802;37.032;2023-07-20T09:04:44;1.52;;;0.88;;
67514;SDS011;60646;55.802;37.032;2023-07-20T09:07:10;1.80;;;0.73;;
67514;SDS011;60646;55.802;37.032;2023-07-20T09:09:40;0.90;;;0.70;;
67514;SDS011;60646;55.802;37.032;2023-07-20T09:12:15;1.73;;;0.80;;
67514;SDS011;60646;55.802;37.032;2023-07-20T09:14:59;1.10;;;0.90;;
67514;SDS011;60646;55.802;37.032;2023-07-20T09:17:27;2.70;;;1.15;;
67514;SDS011;60646;55.802;37.032;2023-07-20T09:19:52;2.50;;;1.00;;
67514;SDS011;60646;55.802;37.032;2023-07-20T09:22:18;1.88;;;0.95;;
67514;SDS011;60646;55.802;37.032;2023-07-20T09:24:44;1.23;;;0.80;;
67514;SDS011;60646;55.802;37.032;2023-07-20T09:27:10;1.27;;;0.70;;
67514;SDS011;60646;55.802;37.032;2023-07-20T09:29:47;1.85;;;0.82;;
67514;SDS011;60646;55.802;37.032;2023-07-20T09:32:19;0.93;;;0.63;;
67514;SDS011;60646;55.802;37.032;2023-07-20T09:34:46;1.27;;;0.77;;
67514;SDS011;60646;55.802;37.032;2023-07-20T09:37:12;1.52;;;0.75;;
67514;SDS011;60646;55.802;37.032;2023-07-20T09:39:45;0.93;;;0.70;;
67514;SDS011;60646;55.802;37.032;2023-07-20T09:42:12;2.05;;;1.30;;
67514;SDS011;60646;55.802;37.032;2023-07-20T09:44:39;2.92;;;1.10;;
67514;SDS011;60646;55.802;37.032;2023-07-20T09:47:08;3.80;;;1.60;;
67514;SDS011;60646;55.802;37.032;2023-07-20T09:49:41;2.75;;;1.25;;
67514;SDS011;60646;55.802;37.032;2023-07-20T09:52:08;1.85;;;1.10;;
67514;SDS011;60646;55.802;37.032;2023-07-20T09:54:36;2.10;;;1.00;;
67514;SDS011;60646;55.802;37.032;2023-07-20T09:57:03;2.75;;;1.08;;
67514;SDS011;60646;55.802;37.032;2023-07-20T09:59:33;1.60;;;1.17;;
67514;SDS011;60646;55.802;37.032;2023-07-20T10:01:59;0.88;;;0.77;;
67514;SDS011;60646;55.802;37.032;2023-07-20T10:04:28;1.45;;;1.00;;
67514;SDS011;60646;55.802;37.032;2023-07-20T10:06:55;1.80;;;0.98;;
67514;SDS011;60646;55.802;37.032;2023-07-20T10:09:26;1.42;;;0.80;;
67514;SDS011;60646;55.802;37.032;2023-07-20T10:11:52;0.95;;;0.75;;
67514;SDS011;60646;55.802;37.032;2023-07-20T10:14:20;1.15;;;0.70;;
67514;SDS011;60646;55.802;37.032;2023-07-20T10:16:48;1.17;;;0.60;;
67514;SDS011;60646;55.802;37.032;2023-07-20T10:22:15;2.53;;;0.90;;
67514;SDS011;60646;55.802;37.032;2023-07-20T10:24:45;3.20;;;0.77;;
67514;SDS011;60646;55.802;37.032;2023-07-20T10:27:13;0.95;;;0.80;;
67514;SDS011;60646;55.802;37.032;2023-07-20T10:29:40;1.88;;;1.00;;
67514;SDS011;60646;55.802;37.032;2023-07-20T10:32:07;1.48;;;0.90;;
67514;SDS011;60646;55.802;37.032;2023-07-20T10:34:36;1.25;;;0.90;;
67514;SDS011;60646;55.802;37.032;2023-07-20T10:37:02;2.10;;;0.80;;
67514;SDS011;60646;55.802;37.032;2023-07-20T10:39:30;1.50;;;0.75;;
67514;SDS011;60646;55.802;37.032;2023-07-20T10:44:29;1.10;;;0.63;;
67514;SDS011;60646;55.802;37.032;2023-07-20T10:47:02;0.73;;;0.70;;
67514;SDS011;60646;55.802;37.032;2023-07-20T10:49:34;1.02;;;0.65;;
67514;SDS011;60646;55.802;37.032;2023-07-20T10:52:04;2.13;;;0.80;;
67514;SDS011;60646;55.802;37.032;2023-07-20T10:56:57;3.05;;;0.80;;
67514;SDS011;60646;55.802;37.032;2023-07-20T10:59:43;3.22;;;0.80;;
67514;SDS011;60646;55.802;37.032;2023-07-20T11:02:12;2.10;;;0.90;;
67514;SDS011;60646;55.802;37.032;2023-07-20T11:04:38;1.73;;;0.82;;
67514;SDS011;60646;55.802;37.032;2023-07-20T11:07:06;1.35;;;0.70;;
67514;SDS011;60646;55.802;37.032;2023-07-20T11:09:38;3.85;;;0.82;;
67514;SDS011;60646;55.802;37.032;2023-07-20T11:12:14;2.80;;;0.75;;
67514;SDS011;60646;55.802;37.032;2023-07-20T11:14:54;2.58;;;0.90;;
67514;SDS011;60646;55.802;37.032;2023-07-20T11:17:28;1.67;;;0.80;;
67514;SDS011;60646;55.802;37.032;2023-07-20T11:19:56;1.67;;;0.57;;
67514;SDS011;60646;55.802;37.032;2023-07-20T11:22:22;0.70;;;0.52;;
67514;SDS011;60646;55.802;37.032;2023-07-20T11:24:49;0.75;;;0.65;;
67514;SDS011;60646;55.802;37.032;2023-07-20T11:27:16;1.15;;;0.80;;
67514;SDS011;60646;55.802;37.032;2023-07-20T11:29:45;0.63;;;0.60;;
67514;SDS011;60646;55.802;37.032;2023-07-20T11:32:21;0.80;;;0.70;;
67514;SDS011;60646;55.802;37.032;2023-07-20T11:34:48;1.30;;;0.88;;
67514;SDS011;60646;55.802;37.032;2023-07-20T11:37:15;1.42;;;0.90;;
67514;SDS011;60646;55.802;37.032;2023-07-20T11:39:44;89.07;;;56.92;;
67514;SDS011;60646;55.802;37.032;2023-07-20T11:42:10;68.88;;;58.42;;
67514;SDS011;60646;55.802;37.032;2023-07-20T11:44:37;30.63;;;22.00;;
67514;SDS011;60646;55.802;37.032;2023-07-20T11:47:04;12.35;;;8.82;;
67514;SDS011;60646;55.802;37.032;2023-07-20T11:49:34;14.93;;;11.75;;
67514;SDS011;60646;55.802;37.032;2023-07-20T11:52:06;11.00;;;9.88;;
67514;SDS011;60646;55.802;37.032;2023-07-20T11:54:34;7.00;;;5.78;;
67514;SDS011;60646;55.802;37.032;2023-07-20T11:57:01;14.05;;;10.13;;
67514;SDS011;60646;55.802;37.032;2023-07-20T11:59:30;8.93;;;5.70;;
67514;SDS011;60646;55.802;37.032;2023-07-20T12:02:02;17.17;;;10.65;;
67514;SDS011;60646;55.802;37.032;2023-07-20T12:04:29;26.00;;;16.70;;
67514;SDS011;60646;55.802;37.032;2023-07-20T12:06:57;14.52;;;7.53;;
67514;SDS011;60646;55.802;37.032;2023-07-20T12:09:22;6.55;;;3.40;;
67514;SDS011;60646;55.802;37.032;2023-07-20T12:11:49;29.17;;;13.32;;
67514;SDS011;60646;55.802;37.032;2023-07-20T12:14:16;9.50;;;5.47;;
67514;SDS011;60646;55.802;37.032;2023-07-20T12:16:43;5.28;;;4.07;;
67514;SDS011;60646;55.802;37.032;2023-07-20T12:19:10;8.02;;;3.78;;
67514;SDS011;60646;55.802;37.032;2023-07-20T12:21:38;4.10;;;2.80;;
67514;SDS011;60646;55.802;37.032;2023-07-20T12:24:07;14.05;;;2.83;;
67514;SDS011;60646;55.802;37.032;2023-07-20T12:26:34;9.70;;;8.57;;
67514;SDS011;60646;55.802;37.032;2023-07-20T12:29:00;18.85;;;17.23;;
67514;SDS011;60646;55.802;37.032;2023-07-20T12:31:27;7.82;;;7.07;;
67514;SDS011;60646;55.802;37.032;2023-07-20T12:33:53;2.72;;;2.22;;
67514;SDS011;60646;55.802;37.032;2023-07-20T12:36:22;5.00;;;4.60;;
67514;SDS011;60646;55.802;37.032;2023-07-20T12:38:48;3.05;;;2.85;;
67514;SDS011;60646;55.802;37.032;2023-07-20T12:41:14;4.22;;;3.13;;
67514;SDS011;60646;55.802;37.032;2023-07-20T12:43:41;1.90;;;1.42;;
67514;SDS011;60646;55.802;37.032;2023-07-20T12:46:25;1.67;;;1.00;;
67514;SDS011;60646;55.802;37.032;2023-07-20T12:48:51;1.35;;;0.90;;
67514;SDS011;60646;55.802;37.032;2023-07-20T12:51:17;1.63;;;1.00;;
67514;SDS011;60646;55.802;37.032;2023-07-20T12:53:45;1.10;;;0.85;;
67514;SDS011;60646;55.802;37.032;2023-07-20T12:56:13;2.00;;;1.20;;
67514;SDS011;60646;55.802;37.032;2023-07-20T12:58:39;3.92;;;1.08;;
67514;SDS011;60646;55.802;37.032;2023-07-20T13:01:05;1.40;;;0.98;;
67514;SDS011;60646;55.802;37.032;2023-07-20T13:03:30;1.10;;;0.82;;
67514;SDS011;60646;55.802;37.032;2023-07-20T13:05:56;1.88;;;1.08;;
67514;SDS011;60646;55.802;37.032;2023-07-20T13:08:23;2.70;;;1.00;;
67514;SDS011;60646;55.802;37.032;2023-07-20T13:10:50;4.28;;;3.45;;
67514;SDS011;60646;55.802;37.032;2023-07-20T13:13:16;8.05;;;7.25;;
67514;SDS011;60646;55.802;37.032;2023-07-20T13:15:43;5.10;;;3.78;;
67514;SDS011;60646;55.802;37.032;2023-07-20T13:18:09;13.65;;;9.93;;
67514;SDS011;60646;55.802;37.032;2023-07-20T13:20:35;7.35;;;4.10;;
67514;SDS011;60646;55.802;37.032;2023-07-20T13:23:01;6.65;;;3.60;;
67514;SDS011;60646;55.802;37.032;2023-07-20T13:25:27;4.50;;;3.10;;
67514;SDS011;60646;55.802;37.032;2023-07-20T13:27:54;5.05;;;3.03;;
67514;SDS011;60646;55.802;37.032;2023-07-20T13:30:19;5.05;;;4.18;;
67514;SDS011;60646;55.802;37.032;2023-07-20T13:32:47;3.65;;;2.42;;
67514;SDS011;60646;55.802;37.032;2023-07-20T13:35:12;9.35;;;3.88;;
67514;SDS011;60646;55.802;37.032;2023-07-20T13:37:38;2.90;;;1.65;;
67514;SDS011;60646;55.802;37.032;2023-07-20T13:40:04;2.00;;;1.25;;
67514;SDS011;60646;55.802;37.032;2023-07-20T13:42:32;2.58;;;1.80;;
67514;SDS011;60646;55.802;37.032;2023-07-20T13:45:02;2.22;;;1.40;;
67514;SDS011;60646;55.802;37.032;2023-07-20T13:47:32;1.15;;;0.90;;
67514;SDS011;60646;55.802;37.032;2023-07-20T13:49:58;1.33;;;1.00;;
67514;SDS011;60646;55.802;37.032;2023-07-20T13:52:24;4.05;;;1.30;;
67514;SDS011;60646;55.802;37.032;2023-07-20T13:54:50;1.40;;;0.80;;
67514;SDS011;60646;55.802;37.032;2023-07-20T13:57:16;1.30;;;0.85;;
67514;SDS011;60646;55.802;37.032;2023-07-20T13:59:42;3.72;;;1.05;;
67514;SDS011;60646;55.802;37.032;2023-07-20T14:02:08;2.30;;;0.90;;
67514;SDS011;60646;55.802;37.032;2023-07-20T14:04:34;1.05;;;0.77;;
67514;SDS011;60646;55.802;37.032;2023-07-20T14:07:01;2.40;;;1.00;;
67514;SDS011;60646;55.802;37.032;2023-07-20T14:09:27;1.80;;;1.30;;
67514;SDS011;60646;55.802;37.032;2023-07-20T14:11:53;3.15;;;1.27;;
67514;SDS011;60646;55.802;37.032;2023-07-20T14:14:18;1.30;;;0.95;;
67514;SDS011;60646;55.802;37.032;2023-07-20T14:16:44;2.03;;;1.15;;
67514;SDS011;60646;55.802;37.032;2023-07-20T14:19:10;19.95;;;14.40;;
67514;SDS011;60646;55.802;37.032;2023-07-20T14:21:36;32.83;;;24.90;;
67514;SDS011;60646;55.802;37.032;2023-07-20T14:24:02;22.00;;;16.20;;
67514;SDS011;60646;55.802;37.032;2023-07-20T14:26:28;13.23;;;9.50;;
67514;SDS011;60646;55.802;37.032;2023-07-20T14:28:54;7.00;;;5.18;;
67514;SDS011;60646;55.802;37.032;2023-07-20T14:31:22;3.20;;;2.42;;
67514;SDS011;60646;55.802;37.032;2023-07-20T14:33:51;3.47;;;2.85;;
67514;SDS011;60646;55.802;37.032;2023-07-20T14:36:17;8.80;;;5.38;;
67514;SDS011;60646;55.802;37.032;2023-07-20T14:38:44;21.88;;;10.70;;
67514;SDS011;60646;55.802;37.032;2023-07-20T14:41:17;11.70;;;5.93;;
67514;SDS011;60646;55.802;37.032;2023-07-20T14:43:44;5.07;;;2.63;;
67514;SDS011;60646;55.802;37.032;2023-07-20T14:46:09;5.55;;;2.45;;
67514;SDS011;60646;55.802;37.032;2023-07-20T14:48:35;2.83;;;1.50;;
67514;SDS011;60646;55.802;37.032;2023-07-20T14:51:01;6.95;;;1.77;;
67514;SDS011;60646;55.802;37.032;2023-07-20T14:53:28;2.92;;;1.13;;
67514;SDS011;60646;55.802;37.032;2023-07-20T14:55:58;6.05;;;1.42;;
67514;SDS011;60646;55.802;37.032;2023-07-20T14:58:25;3.05;;;0.98;;
67514;SDS011;60646;55.802;37.032;2023-07-20T15:00:57;1.13;;;0.70;;
67514;SDS011;60646;55.802;37.032;2023-07-20T15:03:23;1.38;;;0.80;;
67514;SDS011;60646;55.802;37.032;2023-07-20T15:05:52;1.60;;;1.00;;
67514;SDS011;60646;55.802;37.032;2023-07-20T15:08:18;1.63;;;0.98;;
67514;SDS011;60646;55.802;37.032;2023-07-20T15:10:44;2.63;;;0.90;;
67514;SDS011;60646;55.802;37.032;2023-07-20T15:13:12;2.03;;;0.77;;
67514;SDS011;60646;55.802;37.032;2023-07-20T15:15:38;1.42;;;0.82;;
67514;SDS011;60646;55.802;37.032;2023-07-20T15:18:04;4.65;;;1.30;;
67514;SDS011;60646;55.802;37.032;2023-07-20T15:20:29;3.50;;;1.20;;
67514;SDS011;60646;55.802;37.032;2023-07-20T15:22:57;3.58;;;1.80;;
67514;SDS011;60646;55.802;37.032;2023-07-20T15:28:59;1.60;;;0.80;;
67514;SDS011;60646;55.802;37.032;2023-07-20T15:31:25;1.73;;;0.70;;
67514;SDS011;60646;55.802;37.032;2023-07-20T15:33:51;0.68;;;0.52;;
67514;SDS011;60646;55.802;37.032;2023-07-20T15:36:17;1.50;;;0.93;;
67514;SDS011;60646;55.802;37.032;2023-07-20T15:38:43;2.42;;;0.80;;
67514;SDS011;60646;55.802;37.032;2023-07-20T15:41:09;1.52;;;0.90;;
67514;SDS011;60646;55.802;37.032;2023-07-20T15:43:35;2.05;;;1.10;;
67514;SDS011;60646;55.802;37.032;2023-07-20T15:46:09;3.15;;;0.65;;
67514;SDS011;60646;55.802;37.032;2023-07-20T15:48:52;0.65;;;0.60;;
67514;SDS011;60646;55.802;37.032;2023-07-20T15:51:18;3.90;;;1.67;;
67514;SDS011;60646;55.802;37.032;2023-07-20T15:53:44;6.20;;;2.65;;
67514;SDS011;60646;55.802;37.032;2023-07-20T15:56:09;8.63;;;2.92;;
67514;SDS011;60646;55.802;37.032;2023-07-20T15:58:35;2.08;;;1.30;;
67514;SDS011;60646;55.802;37.032;2023-07-20T16:01:01;3.90;;;1.17;;